Time;durP1;ratioP1;P1;durP2;ratioP2;P2;SDS_P1;SDS_P2;PMS_P1;PMS_P2;Temp;Humidity;BMP_temperature;BMP_pressure;BME280_temperature;BME280_humidity;BME280_pressure;Samples;Min_cycle;Max_cycle;Signal;HPM_P1;HPM_P2
2022/08/27 00:02:04;;;;;;;2.15;1.65;;;19.10;66.50;21.20;93793.00;;;;10460464;28;45758;-60
2022/08/27 00:07:24;;;;;;;2.72;1.70;;;19.10;66.70;21.20;93797.00;;;;10427128;28;45215;-60
2022/08/27 00:12:47;;;;;;;2.30;1.60;;;19.10;66.90;21.20;93803.00;;;;10428833;28;45478;-61
2022/08/27 00:18:09;;;;;;;1.85;1.60;;;19.10;67.40;21.20;93807.00;;;;10452044;28;45868;-59
2022/08/27 00:23:30;;;;;;;4.35;1.45;;;19.10;67.50;21.20;93791.00;;;;10433667;28;45322;-61
2022/08/27 00:28:51;;;;;;;1.95;1.65;;;19.10;67.30;21.20;93807.00;;;;10440818;28;45227;-62
2022/08/27 00:34:13;;;;;;;2.70;1.85;;;19.10;67.80;21.20;93810.00;;;;10457513;28;45214;-60
2022/08/27 00:39:35;;;;;;;2.92;1.88;;;19.10;68.20;21.20;93817.00;;;;10468744;28;45257;-60
2022/08/27 00:44:56;;;;;;;2.60;1.80;;;19.10;68.30;21.20;93805.00;;;;10468458;28;45292;-59
2022/08/27 00:50:28;;;;;;;2.75;1.50;;;19.10;68.50;21.20;93788.00;;;;10471243;28;45425;-61
2022/08/27 00:55:55;;;;;;;2.03;1.40;;;19.10;68.40;21.20;93799.00;;;;10442231;28;45122;-60
2022/08/27 01:01:21;;;;;;;2.10;1.45;;;19.10;68.50;21.20;93797.00;;;;10470791;28;45256;-60
2022/08/27 01:06:43;;;;;;;2.13;1.15;;;19.10;68.80;21.20;93792.00;;;;10471971;28;45215;-61
2022/08/27 01:12:05;;;;;;;2.30;1.10;;;19.10;68.80;21.20;93774.00;;;;10475988;28;45352;-59
2022/08/27 01:17:26;;;;;;;1.75;1.00;;;19.00;68.90;21.10;93782.00;;;;10465563;28;45212;-60
2022/08/27 01:22:59;;;;;;;1.30;1.00;;;19.00;68.80;21.10;93766.00;;;;10432873;28;45891;-59
2022/08/27 01:28:22;;;;;;;1.45;1.08;;;19.00;68.20;21.20;93769.00;;;;10432286;28;45074;-59
2022/08/27 01:33:55;;;;;;;1.08;0.80;;;19.00;68.00;21.10;93760.00;;;;10433078;28;45131;-58
2022/08/27 01:39:16;;;;;;;0.63;0.50;;;19.00;67.70;21.10;93755.00;;;;10465170;28;45277;-59
2022/08/27 01:44:50;;;;;;;1.90;0.80;;;19.00;67.60;21.10;93758.00;;;;10473788;28;45831;-59
2022/08/27 01:50:15;;;;;;;0.77;0.60;;;19.00;67.30;21.10;93760.00;;;;10472928;28;45232;-59
2022/08/27 01:55:37;;;;;;;1.30;0.70;;;19.00;67.50;21.00;93749.00;;;;10438329;28;45259;-59
2022/08/27 02:01:05;;;;;;;3.08;0.80;;;18.90;67.50;21.00;93753.00;;;;10471733;28;45193;-59
2022/08/27 02:06:26;;;;;;;0.80;0.55;;;18.90;67.40;21.10;93739.00;;;;10459207;28;45263;-57
2022/08/27 02:11:46;;;;;;;0.80;0.73;;;18.90;67.10;21.00;93733.00;;;;10473209;28;45254;-59
2022/08/27 02:17:08;;;;;;;1.33;0.70;;;18.90;67.20;21.00;93730.00;;;;10455160;28;45282;-59
2022/08/27 02:22:29;;;;;;;0.77;0.60;;;18.90;67.10;21.00;93739.00;;;;10431799;28;45242;-59
2022/08/27 02:27:51;;;;;;;0.60;0.60;;;18.90;67.30;21.00;93743.00;;;;10431282;28;45246;-59
2022/08/27 02:33:13;;;;;;;0.60;0.60;;;18.90;67.20;21.00;93739.00;;;;10430927;28;45691;-60
2022/08/27 02:38:34;;;;;;;0.70;0.60;;;18.80;67.00;21.00;93724.00;;;;10430481;28;45157;-59
2022/08/27 02:43:54;;;;;;;0.88;0.50;;;18.80;66.90;21.00;93725.00;;;;10430185;28;45873;-59
2022/08/27 02:49:16;;;;;;;1.50;0.70;;;18.80;67.00;20.90;93730.00;;;;10430211;28;45226;-58
2022/08/27 02:54:37;;;;;;;1.27;0.65;;;18.80;66.90;20.90;93718.00;;;;10465831;28;45873;-59
2022/08/27 02:59:57;;;;;;;1.00;0.60;;;18.80;66.90;20.90;93717.00;;;;10429906;28;45754;-58
2022/08/27 03:05:19;;;;;;;4.50;1.00;;;18.80;66.90;20.90;93712.00;;;;10428183;28;45869;-58
2022/08/27 03:10:40;;;;;;;1.30;0.80;;;18.80;67.10;20.90;93703.00;;;;10429248;28;45165;-59
2022/08/27 03:16:02;;;;;;;1.33;0.82;;;18.80;67.10;20.90;93695.00;;;;10437232;28;45143;-59
2022/08/27 03:21:27;;;;;;;1.08;0.88;;;18.80;67.10;20.90;93690.00;;;;10429678;28;45244;-59
2022/08/27 03:26:48;;;;;;;0.73;0.73;;;18.80;67.00;20.90;93687.00;;;;10428587;28;45206;-59
2022/08/27 03:32:09;;;;;;;1.58;0.70;;;18.80;67.00;20.90;93687.00;;;;10428737;28;45752;-59
2022/08/27 03:37:30;;;;;;;0.80;0.70;;;18.80;66.80;20.90;93666.00;;;;10460364;28;45408;-59
2022/08/27 03:42:51;;;;;;;1.00;0.80;;;18.80;66.90;20.90;93679.00;;;;10470660;28;45261;-59
2022/08/27 03:48:13;;;;;;;1.15;0.80;;;18.80;66.90;20.80;93684.00;;;;10445599;28;45216;-58
2022/08/27 03:53:36;;;;;;;1.33;0.80;;;18.70;66.90;20.80;93667.00;;;;10429225;28;45180;-58
2022/08/27 03:58:56;;;;;;;1.00;0.80;;;18.70;67.00;20.80;93680.00;;;;10462899;28;45851;-59
2022/08/27 04:04:17;;;;;;;0.77;0.70;;;18.70;66.80;20.90;93668.00;;;;10440144;28;45369;-59
2022/08/27 04:09:39;;;;;;;0.70;0.50;;;18.70;66.60;20.80;93677.00;;;;10427842;28;45238;-56
2022/08/27 04:14:59;;;;;;;1.65;0.80;;;18.70;66.80;20.80;93679.00;;;;10428411;28;45274;-59
2022/08/27 04:20:20;;;;;;;0.95;0.75;;;18.70;66.80;20.80;93688.00;;;;10439782;28;45305;-59
2022/08/27 04:25:43;;;;;;;1.05;0.88;;;18.70;67.00;20.80;93682.00;;;;10432013;28;45949;-59
2022/08/27 04:31:04;;;;;;;1.42;0.95;;;18.70;67.20;20.80;93685.00;;;;10435164;28;45768;-59
2022/08/27 04:36:24;;;;;;;0.90;0.70;;;18.70;67.30;20.80;93689.00;;;;10435236;28;45370;-58
2022/08/27 04:41:49;;;;;;;2.10;1.00;;;18.70;67.30;20.80;93701.00;;;;10434937;28;45114;-60
2022/08/27 04:47:09;;;;;;;2.20;0.90;;;18.70;67.40;20.80;93688.00;;;;10465553;28;46036;-58
2022/08/27 04:52:30;;;;;;;1.20;1.10;;;18.60;67.30;20.80;93694.00;;;;10456233;28;45228;-59
2022/08/27 04:57:52;;;;;;;1.20;1.10;;;18.70;67.30;20.80;93700.00;;;;10459398;28;45998;-59
2022/08/27 05:03:14;;;;;;;1.63;1.20;;;18.60;67.50;20.80;93703.00;;;;10454854;28;45181;-59
2022/08/27 05:08:34;;;;;;;2.42;1.17;;;18.60;67.60;20.80;93704.00;;;;10433937;28;45219;-58
2022/08/27 05:13:57;;;;;;;1.60;1.20;;;18.60;67.70;20.70;93702.00;;;;10433390;28;45870;-62
2022/08/27 05:19:18;;;;;;;2.47;0.90;;;18.60;67.50;20.70;93692.00;;;;10457882;28;45209;-61
2022/08/27 05:24:38;;;;;;;1.20;1.00;;;18.60;67.50;20.70;93705.00;;;;10432961;28;45238;-58
2022/08/27 05:30:00;;;;;;;1.77;1.20;;;18.60;67.20;20.70;93695.00;;;;10433521;28;45130;-58
2022/08/27 05:35:22;;;;;;;1.17;1.08;;;18.60;67.00;20.70;93702.00;;;;10446128;28;45861;-62
2022/08/27 05:40:43;;;;;;;1.30;0.90;;;18.60;67.20;20.70;93696.00;;;;10432494;28;45862;-60
2022/08/27 05:46:08;;;;;;;1.40;1.10;;;18.60;67.50;20.70;93695.00;;;;10432851;28;45107;-59
2022/08/27 05:51:32;;;;;;;1.10;0.82;;;18.60;67.60;20.70;93708.00;;;;10433620;28;45862;-59
2022/08/27 05:56:53;;;;;;;1.20;1.08;;;18.60;67.40;20.70;93707.00;;;;10452696;28;45274;-60
2022/08/27 06:02:15;;;;;;;1.17;0.82;;;18.60;67.20;20.70;93704.00;;;;10463474;28;45205;-60
2022/08/27 06:07:35;;;;;;;1.00;0.80;;;18.60;67.30;20.70;93699.00;;;;10433642;28;45777;-61
2022/08/27 06:12:56;;;;;;;1.48;1.10;;;18.60;67.50;20.70;93699.00;;;;10432017;28;45206;-61
2022/08/27 06:18:17;;;;;;;1.83;0.85;;;18.60;67.90;20.70;93698.00;;;;10431827;28;45206;-61
2022/08/27 06:23:39;;;;;;;1.55;1.20;;;18.60;68.20;20.70;93685.00;;;;10431205;28;45357;-61
2022/08/27 06:29:04;;;;;;;1.63;1.10;;;18.60;68.30;20.80;93705.00;;;;10430478;28;45197;-60
2022/08/27 06:34:25;;;;;;;1.20;0.90;;;18.70;68.10;20.70;93705.00;;;;10444454;28;45158;-63
2022/08/27 06:39:46;;;;;;;1.40;1.10;;;18.70;68.20;20.70;93709.00;;;;10431178;28;45287;-61
2022/08/27 06:45:08;;;;;;;1.40;1.10;;;18.60;68.00;20.70;93703.00;;;;10430232;28;45909;-60
2022/08/27 06:50:30;;;;;;;1.90;1.10;;;18.60;68.00;20.80;93688.00;;;;10442746;28;45302;-62
2022/08/27 06:55:51;;;;;;;1.10;1.00;;;18.70;68.10;20.80;93704.00;;;;10450771;28;46035;-58
2022/08/27 07:01:14;;;;;;;1.23;1.13;;;18.70;68.10;20.80;93716.00;;;;10431658;28;45635;-60
2022/08/27 07:06:38;;;;;;;1.27;1.15;;;18.70;68.50;20.80;93713.00;;;;10443454;28;45145;-58
2022/08/27 07:11:59;;;;;;;1.20;1.00;;;18.70;68.60;20.80;93696.00;;;;10464813;28;45671;-61
2022/08/27 07:17:20;;;;;;;1.23;0.93;;;18.70;68.80;20.80;93715.00;;;;10470767;28;45151;-60
2022/08/27 07:22:43;;;;;;;1.02;0.90;;;18.70;68.80;20.80;93723.00;;;;10471029;28;45222;-60
2022/08/27 07:28:04;;;;;;;1.55;1.20;;;18.70;69.40;20.80;93725.00;;;;10464657;28;45269;-61
2022/08/27 07:33:25;;;;;;;1.52;0.98;;;18.80;69.50;20.90;93733.00;;;;10453553;28;45329;-59
2022/08/27 07:38:46;;;;;;;1.23;1.00;;;18.80;69.40;20.90;93729.00;;;;10428212;28;45342;-59
2022/08/27 07:44:26;;;;;;;1.27;1.05;;;18.80;69.50;20.90;93739.00;;;;10427902;28;45816;-59
2022/08/27 07:49:47;;;;;;;1.20;1.10;;;18.90;69.20;20.90;93750.00;;;;10427589;28;45232;-58
2022/08/27 07:55:10;;;;;;;1.20;1.05;;;18.90;69.30;20.90;93736.00;;;;10456819;28;45140;-59
2022/08/27 08:00:31;;;;;;;1.33;1.10;;;18.90;69.20;20.90;93740.00;;;;10468980;28;45404;-59
2022/08/27 08:05:52;;;;;;;1.70;1.33;;;18.90;69.20;20.90;93762.00;;;;10428047;28;45520;-59
2022/08/27 08:11:16;;;;;;;2.60;1.10;;;18.90;69.20;20.90;93749.00;;;;10440916;28;45271;-59
2022/08/27 08:16:37;;;;;;;1.50;1.00;;;18.90;68.90;20.90;93762.00;;;;10426431;28;45234;-58
2022/08/27 08:21:58;;;;;;;1.58;1.00;;;18.90;68.60;20.90;93761.00;;;;10427675;28;45142;-58
2022/08/27 08:27:20;;;;;;;0.98;0.88;;;18.90;68.60;20.90;93749.00;;;;10427193;28;45686;-60
2022/08/27 08:32:42;;;;;;;1.13;0.90;;;18.90;68.60;20.90;93755.00;;;;10453473;28;45170;-60
2022/08/27 08:38:02;;;;;;;1.58;0.90;;;18.90;68.60;20.90;93773.00;;;;10427566;28;45479;-60
2022/08/27 08:43:32;;;;;;;0.90;0.80;;;18.90;68.50;20.90;93772.00;;;;10427177;28;45294;-59
2022/08/27 08:48:59;;;;;;;1.00;0.80;;;18.90;68.40;21.00;93774.00;;;;10457932;28;45445;-60
2022/08/27 08:54:23;;;;;;;1.08;0.93;;;18.90;68.40;21.00;93775.00;;;;10468780;28;45228;-61
2022/08/27 08:59:53;;;;;;;1.73;1.10;;;18.90;67.80;21.00;93770.00;;;;10467979;28;45317;-59
2022/08/27 09:05:13;;;;;;;0.85;0.80;;;19.00;67.60;21.00;93764.00;;;;10431450;28;45186;-59
2022/08/27 09:10:43;;;;;;;1.17;0.90;;;19.00;67.50;21.00;93770.00;;;;10444323;28;45242;-60
2022/08/27 09:16:06;;;;;;;2.45;1.00;;;18.90;67.10;21.10;93783.00;;;;10460788;28;45193;-59
2022/08/27 09:21:36;;;;;;;1.77;1.13;;;19.00;67.00;21.10;93779.00;;;;10475462;28;45445;-59
2022/08/27 09:26:57;;;;;;;1.10;0.80;;;19.00;66.90;21.10;93779.00;;;;10474073;28;45504;-59
2022/08/27 09:32:25;;;;;;;1.67;0.77;;;19.00;66.70;21.10;93774.00;;;;10473639;28;45275;-59
2022/08/27 09:37:47;;;;;;;;;;;19.00;66.60;21.10;93789.00;;;;10475161;28;45712;-59
2022/08/27 09:43:23;;;;;;;0.93;0.85;;;19.10;66.50;21.10;93790.00;;;;10474439;28;45354;-60
2022/08/27 09:48:47;;;;;;;1.08;0.73;;;19.00;66.40;21.10;93784.00;;;;10474704;28;45423;-59
2022/08/27 09:54:07;;;;;;;1.70;0.80;;;19.00;66.10;21.10;93779.00;;;;10450251;28;45139;-60
2022/08/27 09:59:34;;;;;;;0.93;0.80;;;19.10;66.00;21.10;93768.00;;;;10442847;28;45122;-60
2022/08/27 10:05:11;;;;;;;0.87;0.70;;;19.10;66.00;21.10;93781.00;;;;10435204;28;45335;-60
2022/08/27 10:10:47;;;;;;;1.15;0.60;;;19.10;65.80;21.20;93779.00;;;;10452563;28;45184;-60
2022/08/27 10:16:30;;;;;;;1.00;0.70;;;19.10;65.80;21.20;93777.00;;;;10458109;28;45196;-60
2022/08/27 10:21:59;;;;;;;0.95;0.75;;;19.10;65.70;21.20;93770.00;;;;10430285;28;45249;-60
2022/08/27 10:27:29;;;;;;;1.27;0.85;;;19.10;65.60;21.20;93770.00;;;;10430577;28;45271;-60
2022/08/27 10:33:03;;;;;;;1.10;0.85;;;19.10;65.50;21.20;93764.00;;;;10431554;28;45243;-60
2022/08/27 10:38:35;;;;;;;0.98;0.70;;;19.10;65.30;21.20;93780.00;;;;10431116;28;45725;-59
2022/08/27 10:44:18;;;;;;;1.38;0.90;;;19.10;65.20;21.30;93773.00;;;;10461794;28;45215;-60
2022/08/27 10:49:52;;;;;;;1.92;1.20;;;19.20;65.10;21.20;93763.00;;;;10445439;28;46239;-60
2022/08/27 10:55:20;;;;;;;1.20;0.90;;;19.20;65.10;21.20;93764.00;;;;10433691;28;45573;-60
2022/08/27 11:00:50;;;;;;;1.55;1.20;;;19.20;65.00;21.20;93757.00;;;;10437313;28;45753;-60
2022/08/27 11:06:20;;;;;;;2.95;1.40;;;19.20;65.10;21.20;93745.00;;;;10470685;28;45164;-60
2022/08/27 11:11:47;;;;;;;1.67;1.20;;;19.20;65.10;21.30;93747.00;;;;10442963;28;45371;-60
2022/08/27 11:17:15;;;;;;;1.73;1.17;;;19.20;65.20;21.20;93760.00;;;;10434107;28;45821;-59
2022/08/27 11:22:41;;;;;;;1.20;1.10;;;19.20;65.10;21.30;93747.00;;;;10430188;28;45767;-60
2022/08/27 11:28:06;;;;;;;1.77;1.23;;;19.20;65.10;21.30;93745.00;;;;10429835;28;45687;-60
2022/08/27 11:33:33;;;;;;;1.70;1.20;;;19.20;65.00;21.30;93740.00;;;;10442623;28;45242;-60
2022/08/27 11:39:01;;;;;;;2.35;1.48;;;19.20;64.90;21.30;93750.00;;;;10428719;28;45165;-60
2022/08/27 11:44:26;;;;;;;3.28;1.55;;;19.20;64.80;21.30;93746.00;;;;10428269;28;45692;-60
2022/08/27 11:49:50;;;;;;;2.03;1.52;;;19.30;64.80;21.30;93727.00;;;;10434889;28;45223;-60
2022/08/27 11:55:24;;;;;;;1.45;1.13;;;19.20;64.90;21.30;93727.00;;;;10439529;28;45800;-60
2022/08/27 12:00:48;;;;;;;1.83;1.42;;;19.30;64.80;21.30;93743.00;;;;10469640;28;45417;-60
2022/08/27 12:06:25;;;;;;;1.77;1.35;;;19.30;64.70;21.30;93742.00;;;;10434722;28;45237;-60
2022/08/27 12:11:58;;;;;;;2.22;1.60;;;19.20;64.80;21.30;93722.00;;;;10450228;28;45835;-60
2022/08/27 12:17:29;;;;;;;1.40;1.20;;;19.20;64.70;21.30;93726.00;;;;10446775;28;45377;-59
2022/08/27 12:29:28;;;;;;;2.25;1.50;;;19.20;64.60;21.30;93715.00;;;;10427401;28;45314;-61
2022/08/27 12:35:01;;;;;;;1.75;1.48;;;19.30;64.50;21.30;93722.00;;;;10463323;28;45671;-60
2022/08/27 12:40:24;;;;;;;2.10;1.38;;;19.20;64.60;21.30;93713.00;;;;10468894;28;45262;-59
2022/08/27 12:45:51;;;;;;;2.35;1.73;;;19.20;64.60;21.30;93724.00;;;;10453877;28;45112;-59
2022/08/27 12:51:18;;;;;;;3.50;1.77;;;19.30;64.80;21.20;93721.00;;;;10434654;28;45758;-58
2022/08/27 12:56:57;;;;;;;2.53;1.65;;;19.20;66.10;21.20;93720.00;;;;10450122;28;45217;-59
2022/08/27 13:02:48;;;;;;;2.15;1.70;;;19.20;67.30;21.30;93717.00;;;;10454168;28;45133;-58
2022/08/27 13:08:20;;;;;;;2.92;1.95;;;19.20;67.80;21.20;93717.00;;;;10474813;28;45709;-57
2022/08/27 13:13:40;;;;;;;3.65;1.70;;;19.20;68.80;21.20;93721.00;;;;10454381;28;45822;-58
2022/08/27 13:19:04;;;;;;;3.08;2.08;;;19.20;68.90;21.20;93719.00;;;;10433632;28;45307;-59
2022/08/27 13:24:32;;;;;;;3.45;1.88;;;19.20;69.70;21.30;93710.00;;;;10462687;28;45199;-58
2022/08/27 13:29:53;;;;;;;3.78;1.98;;;19.20;70.10;21.20;93712.00;;;;10475103;28;45231;-58
2022/08/27 13:35:17;;;;;;;3.03;1.90;;;19.30;69.70;21.30;93707.00;;;;10474728;28;45683;-58
2022/08/27 13:40:53;;;;;;;3.50;2.08;;;19.20;68.50;21.30;93689.00;;;;10474495;28;45071;-59
2022/08/27 13:46:18;;;;;;;4.40;1.67;;;19.20;67.90;21.40;93698.00;;;;10459113;28;45202;-58
2022/08/27 13:51:40;;;;;;;3.88;1.63;;;19.30;66.90;21.40;93695.00;;;;10473777;28;45134;-60
2022/08/27 13:57:07;;;;;;;5.43;1.70;;;19.40;66.60;21.50;93694.00;;;;10473361;28;45265;-60
2022/08/27 14:02:28;;;;;;;10.40;1.90;;;19.40;66.30;21.50;93706.00;;;;10460401;28;45221;-61
2022/08/27 14:07:55;;;;;;;3.08;1.40;;;19.40;66.20;21.50;93692.00;;;;10431716;28;45465;-60
2022/08/27 14:13:22;;;;;;;7.20;1.70;;;19.40;66.40;21.50;93709.00;;;;10454647;28;45871;-57
2022/08/27 14:18:53;;;;;;;8.95;3.03;;;19.50;66.50;21.60;93716.00;;;;10431596;28;45774;-59
2022/08/27 14:24:15;;;;;;;13.18;4.68;;;19.50;66.40;21.60;93709.00;;;;10460155;28;45866;-60
2022/08/27 14:29:36;;;;;;;14.57;5.45;;;19.50;66.20;21.60;93703.00;;;;10473628;28;45711;-59
2022/08/27 14:34:57;;;;;;;21.30;6.60;;;19.50;66.30;21.60;93715.00;;;;10472824;28;45413;-61
2022/08/27 14:40:19;;;;;;;27.40;9.18;;;19.50;66.50;21.60;93706.00;;;;10472149;28;45451;-59
2022/08/27 14:45:42;;;;;;;22.10;7.65;;;19.50;66.20;21.60;93706.00;;;;10454509;28;45234;-59
2022/08/27 14:51:11;;;;;;;24.55;7.70;;;19.50;66.60;21.50;93701.00;;;;10430620;28;45882;-60
2022/08/27 14:56:33;;;;;;;22.65;8.30;;;19.50;66.60;21.60;93716.00;;;;10443757;28;45619;-60
2022/08/27 15:01:55;;;;;;;20.55;7.90;;;19.50;66.50;21.50;93713.00;;;;10462606;28;45819;-59
2022/08/27 15:07:18;;;;;;;20.25;7.00;;;19.40;66.60;21.50;93717.00;;;;10428822;28;45148;-58
2022/08/27 15:12:41;;;;;;;19.50;6.93;;;19.40;66.50;21.50;93729.00;;;;10449822;28;45106;-59
2022/08/27 15:18:01;;;;;;;20.75;6.95;;;19.40;66.30;21.50;93734.00;;;;10429374;28;45582;-59
2022/08/27 15:23:22;;;;;;;17.65;6.15;;;19.40;66.20;21.50;93742.00;;;;10436275;28;45771;-59
2022/08/27 15:28:43;;;;;;;17.00;5.80;;;19.40;66.20;21.50;93750.00;;;;10432548;28;45261;-60
2022/08/27 15:34:05;;;;;;;15.80;4.95;;;19.40;66.30;21.50;93750.00;;;;10458724;28;45791;-59
2022/08/27 15:39:25;;;;;;;13.15;4.80;;;19.40;66.10;21.50;93755.00;;;;10470859;28;45857;-58
2022/08/27 15:44:51;;;;;;;10.52;4.40;;;19.40;65.90;21.50;93760.00;;;;10459603;28;45139;-58
2022/08/27 15:50:12;;;;;;;11.48;4.35;;;19.40;65.80;21.50;93760.00;;;;10428157;28;45879;-58
2022/08/27 15:55:39;;;;;;;9.55;3.78;;;19.40;65.80;21.40;93755.00;;;;10434259;28;45217;-60
2022/08/27 16:01:04;;;;;;;;;;;19.40;66.00;21.40;93755.00;;;;10433517;28;45175;-59
2022/08/27 16:06:26;;;;;;;8.35;3.67;;;19.40;66.40;21.40;93762.00;;;;10427880;28;45115;-59
2022/08/27 16:11:47;;;;;;;8.88;3.10;;;19.40;66.50;21.40;93760.00;;;;10446640;28;45141;-57
2022/08/27 16:17:09;;;;;;;7.20;3.38;;;19.40;66.80;21.40;93768.00;;;;10433970;28;45159;-59
2022/08/27 16:22:29;;;;;;;6.38;3.22;;;19.40;66.60;21.50;93761.00;;;;10451589;28;45632;-59
2022/08/27 16:27:51;;;;;;;9.55;3.45;;;19.40;66.50;21.50;93753.00;;;;10445719;28;45911;-58
2022/08/27 16:33:13;;;;;;;6.57;2.97;;;19.40;66.20;21.40;93735.00;;;;10436940;28;45984;-58
2022/08/27 16:38:35;;;;;;;9.52;3.35;;;19.40;66.20;21.50;93734.00;;;;10435792;28;45452;-59
2022/08/27 16:43:57;;;;;;;5.82;2.80;;;19.40;66.00;21.40;93727.00;;;;10441029;28;45157;-58
2022/08/27 16:54:58;;;;;;;4.07;2.00;;;19.40;65.00;21.40;93724.00;;;;10436155;28;45733;-61
2022/08/27 17:00:19;;;;;;;3.03;1.77;;;19.40;64.90;21.40;93709.00;;;;10445772;28;45211;-59
2022/08/27 17:05:41;;;;;;;5.05;1.80;;;19.40;64.90;21.50;93717.00;;;;10430770;28;45202;-57
2022/08/27 17:11:02;;;;;;;4.18;2.00;;;19.40;64.90;21.40;93721.00;;;;10445736;28;45436;-58
2022/08/27 17:16:26;;;;;;;4.47;2.03;;;19.40;64.90;21.40;93738.00;;;;10444842;28;45761;-59
2022/08/27 17:21:49;;;;;;;4.30;2.08;;;19.40;64.90;21.40;93726.00;;;;10434054;28;45773;-58
2022/08/27 17:27:10;;;;;;;2.60;1.65;;;19.40;65.00;21.40;93733.00;;;;10433750;28;45927;-61
2022/08/27 17:32:36;;;;;;;3.25;1.60;;;19.30;65.10;21.40;93735.00;;;;10461164;28;45758;-58
2022/08/27 17:37:57;;;;;;;1.80;1.23;;;19.30;66.40;21.40;93732.00;;;;10474348;28;45224;-59
2022/08/27 17:43:18;;;;;;;2.42;1.45;;;19.30;67.80;21.40;93740.00;;;;10462905;28;45636;-58
2022/08/27 17:48:39;;;;;;;2.72;1.58;;;19.30;68.70;21.40;93748.00;;;;10453076;28;45227;-58
2022/08/27 17:54:00;;;;;;;2.58;1.60;;;19.30;68.40;21.40;93747.00;;;;10431941;28;45385;-60
2022/08/27 17:59:22;;;;;;;2.00;1.33;;;19.30;68.80;21.30;93748.00;;;;10445028;28;45317;-60
2022/08/27 18:04:42;;;;;;;2.53;1.67;;;19.20;69.50;21.30;93741.00;;;;10450654;28;45183;-60
2022/08/27 18:10:06;;;;;;;2.35;1.65;;;19.20;70.00;21.30;93734.00;;;;10449992;28;45881;-59
2022/08/27 18:15:29;;;;;;;1.58;1.10;;;19.20;69.60;21.30;93745.00;;;;10454622;28;45432;-59
2022/08/27 18:20:50;;;;;;;4.03;1.20;;;19.10;69.10;21.20;93747.00;;;;10431317;28;45959;-59
2022/08/27 18:26:15;;;;;;;1.55;1.10;;;19.10;68.50;21.20;93745.00;;;;10430445;28;45786;-60
2022/08/27 18:31:36;;;;;;;1.92;1.23;;;19.10;68.10;21.20;93762.00;;;;10429833;28;45480;-60
2022/08/27 18:36:56;;;;;;;1.85;1.27;;;19.10;67.80;21.20;93756.00;;;;10430660;28;45216;-60
2022/08/27 18:42:18;;;;;;;1.77;1.23;;;19.00;67.00;21.10;93750.00;;;;10459976;28;45235;-60
2022/08/27 18:47:39;;;;;;;2.22;1.35;;;19.00;66.70;21.10;93775.00;;;;10437248;28;45143;-60
2022/08/27 18:53:02;;;;;;;3.97;1.40;;;18.90;66.80;21.10;93777.00;;;;10443556;28;45723;-61
2022/08/27 18:58:25;;;;;;;1.80;1.33;;;18.90;66.40;21.00;93773.00;;;;10459740;28;45301;-59
2022/08/27 19:03:49;;;;;;;2.88;1.38;;;18.90;66.20;21.00;93776.00;;;;10447088;28;45231;-58
2022/08/27 19:09:10;;;;;;;2.05;1.40;;;18.80;66.10;21.00;93799.00;;;;10426240;28;45887;-58
2022/08/27 19:14:32;;;;;;;1.88;1.20;;;18.90;65.90;20.90;93806.00;;;;10443730;28;45157;-60
2022/08/27 19:19:53;;;;;;;1.98;1.10;;;18.80;65.90;20.90;93819.00;;;;10429909;28;45509;-60
2022/08/27 19:25:16;;;;;;;2.10;1.50;;;18.80;65.70;20.90;93810.00;;;;10428884;28;45382;-58
2022/08/27 19:30:38;;;;;;;1.48;1.05;;;18.80;65.70;20.90;93834.00;;;;10428251;28;45226;-59
2022/08/27 19:35:58;;;;;;;1.67;1.38;;;18.80;65.50;20.90;93834.00;;;;10427678;28;45268;-59
2022/08/27 19:41:20;;;;;;;2.10;1.05;;;18.80;65.50;20.90;93843.00;;;;10429070;28;45404;-59
2022/08/27 19:46:42;;;;;;;2.53;1.50;;;18.80;65.40;20.90;93833.00;;;;10441364;28;46244;-59
2022/08/27 19:52:04;;;;;;;1.75;1.00;;;18.80;65.30;20.90;93844.00;;;;10427806;28;45250;-58
2022/08/27 19:57:25;;;;;;;1.95;1.30;;;18.70;65.30;20.80;93847.00;;;;10449599;28;45786;-57
2022/08/27 20:02:47;;;;;;;1.85;1.30;;;18.70;66.00;20.80;93835.00;;;;10454390;28;45795;-58
2022/08/27 20:08:07;;;;;;;2.47;1.30;;;18.70;65.00;20.80;93833.00;;;;10458191;28;45516;-59
2022/08/27 20:13:28;;;;;;;2.85;1.27;;;18.70;65.00;20.80;93847.00;;;;10459971;28;45749;-58
2022/08/27 20:18:50;;;;;;;1.70;1.20;;;18.70;65.00;20.80;93852.00;;;;10428717;28;45154;-58
2022/08/27 20:24:11;;;;;;;2.33;1.23;;;18.60;64.80;20.70;93846.00;;;;10427850;28;45238;-58
2022/08/27 20:29:32;;;;;;;2.00;1.20;;;18.60;64.80;20.70;93843.00;;;;10428009;28;45188;-61
2022/08/27 20:34:54;;;;;;;2.60;1.25;;;18.60;64.70;20.70;93845.00;;;;10427471;28;45286;-58
2022/08/27 20:40:19;;;;;;;2.20;1.50;;;18.60;64.40;20.70;93835.00;;;;10427586;28;45517;-58
2022/08/27 20:45:40;;;;;;;2.08;1.30;;;18.60;64.40;20.70;93847.00;;;;10426966;28;45202;-58
2022/08/27 20:51:02;;;;;;;2.35;1.45;;;18.60;64.30;20.70;93848.00;;;;10427505;28;45196;-60
2022/08/27 20:56:23;;;;;;;2.45;1.50;;;18.60;64.40;20.70;93853.00;;;;10439256;28;45190;-58
2022/08/27 21:01:43;;;;;;;2.55;1.55;;;18.50;64.20;20.60;93845.00;;;;10459578;28;45378;-59
2022/08/27 21:07:05;;;;;;;2.47;1.70;;;18.50;64.20;20.60;93836.00;;;;10426502;28;45524;-58
2022/08/27 21:12:26;;;;;;;2.78;1.75;;;18.50;64.10;20.60;93843.00;;;;10452247;28;45353;-58
2022/08/27 21:17:46;;;;;;;2.28;1.58;;;18.50;64.10;20.60;93833.00;;;;10434600;28;45185;-58
2022/08/27 21:23:08;;;;;;;2.85;1.70;;;18.40;64.10;20.60;93837.00;;;;10433350;28;45196;-60
2022/08/27 21:28:30;;;;;;;3.17;1.50;;;18.40;64.80;20.60;93836.00;;;;10434066;28;45267;-59
2022/08/27 21:33:51;;;;;;;2.78;1.88;;;18.40;63.90;20.60;93839.00;;;;10433687;28;45143;-59
2022/08/27 21:39:13;;;;;;;2.30;1.65;;;18.40;63.90;20.60;93829.00;;;;10433687;28;45833;-58
2022/08/27 21:44:33;;;;;;;2.40;1.65;;;18.40;63.90;20.50;93833.00;;;;10433330;28;45559;-58
2022/08/27 21:49:53;;;;;;;2.63;1.63;;;18.40;64.00;20.50;93830.00;;;;10432802;28;45280;-58
2022/08/27 21:55:16;;;;;;;1.85;1.42;;;18.40;64.00;20.50;93819.00;;;;10462777;28;45791;-60
2022/08/27 22:00:42;;;;;;;2.05;1.60;;;18.40;63.90;20.50;93825.00;;;;10474795;28;45189;-58
2022/08/27 22:06:06;;;;;;;2.65;1.58;;;18.30;63.70;20.50;93839.00;;;;10432719;28;45604;-58
2022/08/27 22:11:28;;;;;;;2.15;1.58;;;18.30;63.60;20.50;93836.00;;;;10439015;28;45926;-58
2022/08/27 22:16:49;;;;;;;2.15;1.60;;;18.30;63.60;20.40;93835.00;;;;10437396;28;45746;-58
2022/08/27 22:22:09;;;;;;;2.38;1.48;;;18.30;63.80;20.50;93828.00;;;;10432453;28;45679;-58
2022/08/27 22:27:32;;;;;;;2.38;1.60;;;18.30;63.80;20.50;93828.00;;;;10460600;28;45144;-59
2022/08/27 22:32:53;;;;;;;4.95;2.00;;;18.30;63.80;20.40;93822.00;;;;10473277;28;45278;-58
2022/08/27 22:38:13;;;;;;;2.95;1.88;;;18.30;63.90;20.50;93821.00;;;;10435606;28;45200;-58
2022/08/27 22:43:36;;;;;;;2.30;1.50;;;18.30;64.00;20.40;93822.00;;;;10431349;28;45312;-59
2022/08/27 22:48:57;;;;;;;3.35;1.90;;;18.30;64.30;20.40;93827.00;;;;10446042;28;45205;-59
2022/08/27 22:54:18;;;;;;;2.88;1.73;;;18.30;64.20;20.40;93823.00;;;;10472599;28;45257;-58
2022/08/27 22:59:40;;;;;;;3.95;1.73;;;18.30;64.20;20.40;93833.00;;;;10470961;28;45182;-58
2022/08/27 23:05:01;;;;;;;2.92;1.75;;;18.20;64.20;20.40;93818.00;;;;10433640;28;46050;-60
2022/08/27 23:10:23;;;;;;;2.28;1.60;;;18.20;64.10;20.40;93820.00;;;;10429326;28;45198;-58
2022/08/27 23:15:45;;;;;;;3.35;1.80;;;18.20;64.30;20.40;93826.00;;;;10452022;28;45201;-58
2022/08/27 23:21:06;;;;;;;2.88;1.80;;;18.20;64.40;20.40;93831.00;;;;10459837;28;45476;-59
2022/08/27 23:32:07;;;;;;;2.83;2.03;;;18.20;64.30;20.30;93827.00;;;;10429781;28;45233;-58
2022/08/27 23:37:27;;;;;;;3.08;2.15;;;18.20;64.50;20.40;93824.00;;;;10460148;28;45842;-60
2022/08/27 23:42:49;;;;;;;4.03;1.90;;;18.20;64.50;20.30;93821.00;;;;10470767;28;45671;-58
2022/08/27 23:48:11;;;;;;;2.65;1.75;;;18.20;64.80;20.30;93829.00;;;;10435510;28;45063;-58
2022/08/27 23:53:32;;;;;;;3.95;2.13;;;18.20;64.90;20.40;93813.00;;;;10459532;28;45126;-57
2022/08/27 23:58:54;;;;;;;3.55;2.33;;;18.20;65.10;20.40;93814.00;;;;10470213;28;45291;-58
